Terminal Aerodrome Forecast
Issued by NWS

Home | Current Version | Previous Version | Text Only | Print | Product List | Glossary On
Versions: 1 2 3 4 5 6 7 8 9 10 11 12 13
138
FTUS45 KRIW 292325
TAFWRL
TAF
KWRL 292325Z 3000/3024 VRB06KT P6SM BKN200
     FM300500 16005KT P6SM SCT080 BKN150
     FM301900 24012KT P6SM SCT070 BKN150=

USA.gov is the U.S. government's official web portal to all federal, state and local government web resources and services.